Huntington, New York
Current Conditions -  °F | °C
As of 9:56 AM on Monday 22 Dec 2014 (Local Time) from KFRG Reporting Station
Broken Clouds Broken Clouds  
Wind Chill:   Ceiling: 1800
Heat Index:   Visibility: 10mi
Dew Point:   Wind: 10mph
Humidity: 82%   Direction: 50°NE
Pressure: 30.32"   Gusts: NA
Location:  40.87°N, 73.42°W
Report Text: KFRG 221456Z 05009KT 10SM SCT010 BKN018 BKN040 06/03 A3032 RMK AO2 T00560028
Loading
Personal Weather Stations






























Interactive Weather Map New forecast layout! Learn more

10-Day Weather Forecast

Advertisements
Track Severe Weather on mobile